sensor_id;sensor_type;location;lat;lon;timestamp;temperature;humidity
770;DHT22;368;48.698;9.116;2022-09-29T00:00:43;6.80;99.90
770;DHT22;368;48.698;9.116;2022-09-29T00:03:10;6.90;99.90
770;DHT22;368;48.698;9.116;2022-09-29T00:05:37;6.80;99.90
770;DHT22;368;48.698;9.116;2022-09-29T00:08:03;6.90;99.90
770;DHT22;368;48.698;9.116;2022-09-29T00:10:30;6.70;99.90
770;DHT22;368;48.698;9.116;2022-09-29T00:12:59;6.90;99.90
770;DHT22;368;48.698;9.116;2022-09-29T00:15:27;6.80;99.90
770;DHT22;368;48.698;9.116;2022-09-29T00:17:54;7.00;99.90
770;DHT22;368;48.698;9.116;2022-09-29T00:20:21;6.90;99.90
770;DHT22;368;48.698;9.116;2022-09-29T00:22:49;6.80;99.90
770;DHT22;368;48.698;9.116;2022-09-29T00:25:16;7.00;99.90
770;DHT22;368;48.698;9.116;2022-09-29T00:27:43;7.10;99.90
770;DHT22;368;48.698;9.116;2022-09-29T00:30:12;7.00;99.90
770;DHT22;368;48.698;9.116;2022-09-29T00:32:40;6.90;99.90
770;DHT22;368;48.698;9.116;2022-09-29T00:35:09;7.00;99.90
770;DHT22;368;48.698;9.116;2022-09-29T00:37:36;6.90;99.90
770;DHT22;368;48.698;9.116;2022-09-29T00:40:04;6.90;99.90
770;DHT22;368;48.698;9.116;2022-09-29T00:42:31;6.70;99.90
770;DHT22;368;48.698;9.116;2022-09-29T00:45:05;7.20;99.90
770;DHT22;368;48.698;9.116;2022-09-29T00:47:41;6.90;99.90
770;DHT22;368;48.698;9.116;2022-09-29T00:50:13;7.00;99.90
770;DHT22;368;48.698;9.116;2022-09-29T00:52:45;7.00;99.90
770;DHT22;368;48.698;9.116;2022-09-29T00:55:16;6.90;99.90
770;DHT22;368;48.698;9.116;2022-09-29T00:57:48;6.70;99.90
770;DHT22;368;48.698;9.116;2022-09-29T01:00:16;6.90;99.90
770;DHT22;368;48.698;9.116;2022-09-29T01:02:47;6.80;99.90
770;DHT22;368;48.698;9.116;2022-09-29T01:05:19;6.90;99.90
770;DHT22;368;48.698;9.116;2022-09-29T01:07:47;7.10;99.90
770;DHT22;368;48.698;9.116;2022-09-29T01:10:15;7.00;99.90
770;DHT22;368;48.698;9.116;2022-09-29T01:12:44;7.10;99.90
770;DHT22;368;48.698;9.116;2022-09-29T01:15:12;6.90;99.90
770;DHT22;368;48.698;9.116;2022-09-29T01:17:39;7.10;99.90
770;DHT22;368;48.698;9.116;2022-09-29T01:20:11;6.60;99.90
770;DHT22;368;48.698;9.116;2022-09-29T01:26:05;6.90;99.90
770;DHT22;368;48.698;9.116;2022-09-29T01:29:03;6.90;99.90
770;DHT22;368;48.698;9.116;2022-09-29T01:31:43;7.10;99.90
770;DHT22;368;48.698;9.116;2022-09-29T01:34:16;6.70;99.90
770;DHT22;368;48.698;9.116;2022-09-29T01:36:50;7.00;99.90
770;DHT22;368;48.698;9.116;2022-09-29T01:42:48;6.90;99.90
770;DHT22;368;48.698;9.116;2022-09-29T01:45:23;6.70;99.90
770;DHT22;368;48.698;9.116;2022-09-29T01:47:56;7.00;99.90
770;DHT22;368;48.698;9.116;2022-09-29T01:50:31;6.70;99.90
770;DHT22;368;48.698;9.116;2022-09-29T01:53:04;6.90;99.90
770;DHT22;368;48.698;9.116;2022-09-29T01:55:37;6.90;99.90
770;DHT22;368;48.698;9.116;2022-09-29T01:58:09;6.80;99.90
770;DHT22;368;48.698;9.116;2022-09-29T02:00:42;7.00;99.90
770;DHT22;368;48.698;9.116;2022-09-29T02:03:14;6.80;99.90
770;DHT22;368;48.698;9.116;2022-09-29T02:05:44;6.90;99.90
770;DHT22;368;48.698;9.116;2022-09-29T02:08:15;6.90;99.90
770;DHT22;368;48.698;9.116;2022-09-29T02:10:48;6.80;99.90
770;DHT22;368;48.698;9.116;2022-09-29T02:13:17;7.00;99.90
770;DHT22;368;48.698;9.116;2022-09-29T02:15:47;7.00;99.90
770;DHT22;368;48.698;9.116;2022-09-29T02:18:21;7.00;99.90
770;DHT22;368;48.698;9.116;2022-09-29T02:20:49;7.00;99.90
770;DHT22;368;48.698;9.116;2022-09-29T02:23:16;7.00;99.90
770;DHT22;368;48.698;9.116;2022-09-29T02:25:46;7.20;99.90
770;DHT22;368;48.698;9.116;2022-09-29T02:28:14;7.10;99.90
770;DHT22;368;48.698;9.116;2022-09-29T02:30:42;7.10;99.90
770;DHT22;368;48.698;9.116;2022-09-29T02:33:19;7.20;99.90
770;DHT22;368;48.698;9.116;2022-09-29T02:35:57;7.30;99.90
770;DHT22;368;48.698;9.116;2022-09-29T02:38:32;7.30;99.90
770;DHT22;368;48.698;9.116;2022-09-29T02:41:06;7.40;99.90
770;DHT22;368;48.698;9.116;2022-09-29T02:43:57;7.20;99.90
770;DHT22;368;48.698;9.116;2022-09-29T02:46:39;7.40;99.90
770;DHT22;368;48.698;9.116;2022-09-29T02:49:23;7.20;99.90
770;DHT22;368;48.698;9.116;2022-09-29T02:51:57;7.30;99.90
770;DHT22;368;48.698;9.116;2022-09-29T02:54:37;7.20;99.90
770;DHT22;368;48.698;9.116;2022-09-29T02:57:16;7.00;99.90
770;DHT22;368;48.698;9.116;2022-09-29T02:59:50;7.10;99.90
770;DHT22;368;48.698;9.116;2022-09-29T03:02:23;7.20;99.90
770;DHT22;368;48.698;9.116;2022-09-29T03:04:51;7.00;99.90
770;DHT22;368;48.698;9.116;2022-09-29T03:07:18;7.40;99.90
770;DHT22;368;48.698;9.116;2022-09-29T03:09:45;7.20;99.90
770;DHT22;368;48.698;9.116;2022-09-29T03:12:15;7.00;99.90
770;DHT22;368;48.698;9.116;2022-09-29T03:14:43;7.10;99.90
770;DHT22;368;48.698;9.116;2022-09-29T03:17:09;7.00;99.90
770;DHT22;368;48.698;9.116;2022-09-29T03:19:36;6.90;99.90
770;DHT22;368;48.698;9.116;2022-09-29T03:22:05;6.90;99.90
770;DHT22;368;48.698;9.116;2022-09-29T03:24:31;6.90;99.90
770;DHT22;368;48.698;9.116;2022-09-29T03:26:58;6.90;99.90
770;DHT22;368;48.698;9.116;2022-09-29T03:29:25;7.00;99.90
770;DHT22;368;48.698;9.116;2022-09-29T03:31:52;6.90;99.90
770;DHT22;368;48.698;9.116;2022-09-29T03:34:19;7.00;99.90
770;DHT22;368;48.698;9.116;2022-09-29T03:36:46;6.60;99.90
770;DHT22;368;48.698;9.116;2022-09-29T03:39:14;6.80;99.90
770;DHT22;368;48.698;9.116;2022-09-29T03:41:40;6.50;99.90
770;DHT22;368;48.698;9.116;2022-09-29T03:44:07;6.30;99.90
770;DHT22;368;48.698;9.116;2022-09-29T03:46:34;6.30;99.90
770;DHT22;368;48.698;9.116;2022-09-29T03:49:01;6.20;99.90
770;DHT22;368;48.698;9.116;2022-09-29T03:51:28;6.30;99.90
770;DHT22;368;48.698;9.116;2022-09-29T03:53:55;6.10;99.90
770;DHT22;368;48.698;9.116;2022-09-29T03:56:23;6.10;99.90
770;DHT22;368;48.698;9.116;2022-09-29T03:58:49;5.90;99.90
770;DHT22;368;48.698;9.116;2022-09-29T04:01:16;6.00;99.90
770;DHT22;368;48.698;9.116;2022-09-29T04:03:43;6.00;99.90
770;DHT22;368;48.698;9.116;2022-09-29T04:06:10;6.00;99.90
770;DHT22;368;48.698;9.116;2022-09-29T04:08:37;5.70;99.90
770;DHT22;368;48.698;9.116;2022-09-29T04:11:04;5.90;99.90
770;DHT22;368;48.698;9.116;2022-09-29T04:13:33;5.90;99.90
770;DHT22;368;48.698;9.116;2022-09-29T04:16:02;5.50;99.90
770;DHT22;368;48.698;9.116;2022-09-29T04:18:30;5.90;99.90
770;DHT22;368;48.698;9.116;2022-09-29T04:20:57;5.60;99.90
770;DHT22;368;48.698;9.116;2022-09-29T04:23:25;5.60;99.90
770;DHT22;368;48.698;9.116;2022-09-29T04:25:52;5.70;99.90
770;DHT22;368;48.698;9.116;2022-09-29T04:28:19;5.60;99.90
770;DHT22;368;48.698;9.116;2022-09-29T04:30:47;5.60;99.90
770;DHT22;368;48.698;9.116;2022-09-29T04:33:14;5.50;99.90
770;DHT22;368;48.698;9.116;2022-09-29T04:35:41;5.70;99.90
770;DHT22;368;48.698;9.116;2022-09-29T04:38:07;5.30;99.90
770;DHT22;368;48.698;9.116;2022-09-29T04:40:35;5.50;99.90
770;DHT22;368;48.698;9.116;2022-09-29T04:43:02;5.30;99.90
770;DHT22;368;48.698;9.116;2022-09-29T04:45:29;5.50;99.90
770;DHT22;368;48.698;9.116;2022-09-29T04:47:57;5.20;99.90
770;DHT22;368;48.698;9.116;2022-09-29T04:50:24;5.70;99.90
770;DHT22;368;48.698;9.116;2022-09-29T04:52:51;5.20;99.90
770;DHT22;368;48.698;9.116;2022-09-29T04:55:18;5.20;99.90
770;DHT22;368;48.698;9.116;2022-09-29T04:57:44;5.50;99.90
770;DHT22;368;48.698;9.116;2022-09-29T05:00:13;5.50;99.90
770;DHT22;368;48.698;9.116;2022-09-29T05:02:40;5.50;99.90
770;DHT22;368;48.698;9.116;2022-09-29T05:05:09;5.40;99.90
770;DHT22;368;48.698;9.116;2022-09-29T05:07:37;5.20;99.90
770;DHT22;368;48.698;9.116;2022-09-29T05:10:05;5.30;99.90
770;DHT22;368;48.698;9.116;2022-09-29T05:12:32;5.20;99.90
770;DHT22;368;48.698;9.116;2022-09-29T05:14:59;5.20;99.90
770;DHT22;368;48.698;9.116;2022-09-29T05:17:26;5.50;99.90
770;DHT22;368;48.698;9.116;2022-09-29T05:19:53;5.50;99.90
770;DHT22;368;48.698;9.116;2022-09-29T05:22:21;5.50;99.90
770;DHT22;368;48.698;9.116;2022-09-29T05:24:50;5.40;99.90
770;DHT22;368;48.698;9.116;2022-09-29T05:27:17;5.60;99.90
770;DHT22;368;48.698;9.116;2022-09-29T05:29:44;5.70;99.90
770;DHT22;368;48.698;9.116;2022-09-29T05:32:11;5.40;99.90
770;DHT22;368;48.698;9.116;2022-09-29T05:34:38;5.50;99.90
770;DHT22;368;48.698;9.116;2022-09-29T05:37:05;5.50;99.90
770;DHT22;368;48.698;9.116;2022-09-29T05:39:33;5.50;99.90
770;DHT22;368;48.698;9.116;2022-09-29T05:42:01;5.90;99.90
770;DHT22;368;48.698;9.116;2022-09-29T05:44:30;5.90;99.90
770;DHT22;368;48.698;9.116;2022-09-29T05:46:58;6.30;99.90
770;DHT22;368;48.698;9.116;2022-09-29T05:49:24;6.00;99.90
770;DHT22;368;48.698;9.116;2022-09-29T05:51:51;6.10;99.90
770;DHT22;368;48.698;9.116;2022-09-29T05:54:18;6.00;99.90
770;DHT22;368;48.698;9.116;2022-09-29T05:56:47;5.90;99.90
770;DHT22;368;48.698;9.116;2022-09-29T05:59:13;5.70;99.90
770;DHT22;368;48.698;9.116;2022-09-29T06:01:40;6.00;99.90
770;DHT22;368;48.698;9.116;2022-09-29T06:04:07;5.90;99.90
770;DHT22;368;48.698;9.116;2022-09-29T06:06:34;5.80;99.90
770;DHT22;368;48.698;9.116;2022-09-29T06:09:04;5.90;99.90
770;DHT22;368;48.698;9.116;2022-09-29T06:11:31;6.00;99.90
770;DHT22;368;48.698;9.116;2022-09-29T06:14:01;6.20;99.90
770;DHT22;368;48.698;9.116;2022-09-29T06:16:30;6.20;99.90
770;DHT22;368;48.698;9.116;2022-09-29T06:18:58;6.20;99.90
770;DHT22;368;48.698;9.116;2022-09-29T06:21:27;6.30;99.90
770;DHT22;368;48.698;9.116;2022-09-29T06:23:55;6.50;99.90
770;DHT22;368;48.698;9.116;2022-09-29T06:26:23;6.60;99.90
770;DHT22;368;48.698;9.116;2022-09-29T06:28:50;6.60;99.90
770;DHT22;368;48.698;9.116;2022-09-29T06:31:20;6.60;99.90
770;DHT22;368;48.698;9.116;2022-09-29T06:33:47;6.60;99.90
770;DHT22;368;48.698;9.116;2022-09-29T06:36:16;6.80;99.90
770;DHT22;368;48.698;9.116;2022-09-29T06:39:01;6.80;99.90
770;DHT22;368;48.698;9.116;2022-09-29T06:41:28;6.80;99.90
770;DHT22;368;48.698;9.116;2022-09-29T06:43:55;6.60;99.90
770;DHT22;368;48.698;9.116;2022-09-29T06:46:24;6.80;99.90
770;DHT22;368;48.698;9.116;2022-09-29T06:48:52;6.90;99.90
770;DHT22;368;48.698;9.116;2022-09-29T06:51:21;6.70;99.90
770;DHT22;368;48.698;9.116;2022-09-29T06:53:49;6.80;99.90
770;DHT22;368;48.698;9.116;2022-09-29T06:56:17;7.30;99.90
770;DHT22;368;48.698;9.116;2022-09-29T06:58:45;7.40;99.90
770;DHT22;368;48.698;9.116;2022-09-29T07:01:12;7.50;99.90
770;DHT22;368;48.698;9.116;2022-09-29T07:03:40;7.60;99.90
770;DHT22;368;48.698;9.116;2022-09-29T07:06:09;7.80;99.90
770;DHT22;368;48.698;9.116;2022-09-29T07:08:36;8.30;99.90
770;DHT22;368;48.698;9.116;2022-09-29T07:11:05;8.00;99.90
770;DHT22;368;48.698;9.116;2022-09-29T07:13:32;8.10;99.90
770;DHT22;368;48.698;9.116;2022-09-29T07:16:03;8.50;99.90
770;DHT22;368;48.698;9.116;2022-09-29T07:18:32;8.40;99.90
770;DHT22;368;48.698;9.116;2022-09-29T07:21:01;8.60;99.90
770;DHT22;368;48.698;9.116;2022-09-29T07:23:28;8.20;99.90
770;DHT22;368;48.698;9.116;2022-09-29T07:25:55;8.60;99.90
770;DHT22;368;48.698;9.116;2022-09-29T07:28:22;8.30;99.90
770;DHT22;368;48.698;9.116;2022-09-29T07:30:57;8.50;99.90
770;DHT22;368;48.698;9.116;2022-09-29T07:33:24;8.80;99.90
770;DHT22;368;48.698;9.116;2022-09-29T07:35:52;8.60;99.90
770;DHT22;368;48.698;9.116;2022-09-29T07:38:20;8.40;99.90
770;DHT22;368;48.698;9.116;2022-09-29T07:40:47;8.80;99.90
770;DHT22;368;48.698;9.116;2022-09-29T07:43:14;8.70;99.90
770;DHT22;368;48.698;9.116;2022-09-29T07:45:46;9.00;99.90
770;DHT22;368;48.698;9.116;2022-09-29T07:48:13;9.00;99.90
770;DHT22;368;48.698;9.116;2022-09-29T07:50:41;9.40;99.90
770;DHT22;368;48.698;9.116;2022-09-29T07:53:08;9.80;99.90
770;DHT22;368;48.698;9.116;2022-09-29T07:55:37;9.60;99.90
770;DHT22;368;48.698;9.116;2022-09-29T07:58:05;9.90;99.90
770;DHT22;368;48.698;9.116;2022-09-29T08:00:32;9.70;99.90
770;DHT22;368;48.698;9.116;2022-09-29T08:02:59;9.70;99.90
770;DHT22;368;48.698;9.116;2022-09-29T08:05:27;10.00;99.90
770;DHT22;368;48.698;9.116;2022-09-29T08:07:54;9.80;99.90
770;DHT22;368;48.698;9.116;2022-09-29T08:10:22;9.70;99.90
770;DHT22;368;48.698;9.116;2022-09-29T08:12:50;9.60;99.90
770;DHT22;368;48.698;9.116;2022-09-29T08:15:17;10.10;99.90
770;DHT22;368;48.698;9.116;2022-09-29T08:17:45;10.00;99.90
770;DHT22;368;48.698;9.116;2022-09-29T08:20:12;10.30;99.90
770;DHT22;368;48.698;9.116;2022-09-29T08:22:39;10.40;99.90
770;DHT22;368;48.698;9.116;2022-09-29T08:25:07;10.40;99.90
770;DHT22;368;48.698;9.116;2022-09-29T08:27:34;10.70;99.90
770;DHT22;368;48.698;9.116;2022-09-29T08:30:02;10.70;99.90
770;DHT22;368;48.698;9.116;2022-09-29T08:32:30;10.90;99.90
770;DHT22;368;48.698;9.116;2022-09-29T08:34:57;11.10;99.90
770;DHT22;368;48.698;9.116;2022-09-29T08:37:24;11.30;99.90
770;DHT22;368;48.698;9.116;2022-09-29T08:39:50;11.10;99.90
770;DHT22;368;48.698;9.116;2022-09-29T08:42:21;11.30;99.90
770;DHT22;368;48.698;9.116;2022-09-29T08:44:55;11.30;99.90
770;DHT22;368;48.698;9.116;2022-09-29T08:47:28;11.50;99.90
770;DHT22;368;48.698;9.116;2022-09-29T08:49:57;12.00;99.90
770;DHT22;368;48.698;9.116;2022-09-29T08:52:29;12.10;99.90
770;DHT22;368;48.698;9.116;2022-09-29T08:55:05;11.70;99.90
770;DHT22;368;48.698;9.116;2022-09-29T08:57:35;11.90;99.90
770;DHT22;368;48.698;9.116;2022-09-29T09:00:03;12.20;99.90
770;DHT22;368;48.698;9.116;2022-09-29T09:05:56;12.00;99.90
770;DHT22;368;48.698;9.116;2022-09-29T09:08:41;12.10;99.90
770;DHT22;368;48.698;9.116;2022-09-29T09:11:24;12.30;99.90
770;DHT22;368;48.698;9.116;2022-09-29T09:14:01;12.10;99.90
770;DHT22;368;48.698;9.116;2022-09-29T09:16:37;12.40;99.90
770;DHT22;368;48.698;9.116;2022-09-29T09:19:35;12.60;99.90
770;DHT22;368;48.698;9.116;2022-09-29T09:22:16;11.90;99.90
770;DHT22;368;48.698;9.116;2022-09-29T09:24:49;11.80;99.90
770;DHT22;368;48.698;9.116;2022-09-29T09:27:23;11.80;99.90
770;DHT22;368;48.698;9.116;2022-09-29T09:30:00;11.90;99.90
770;DHT22;368;48.698;9.116;2022-09-29T09:32:30;12.10;99.90
770;DHT22;368;48.698;9.116;2022-09-29T09:35:02;12.20;99.90
770;DHT22;368;48.698;9.116;2022-09-29T09:37:33;12.30;99.90
770;DHT22;368;48.698;9.116;2022-09-29T09:40:12;12.40;99.90
770;DHT22;368;48.698;9.116;2022-09-29T09:42:42;12.20;99.90
770;DHT22;368;48.698;9.116;2022-09-29T09:45:14;12.20;99.90
770;DHT22;368;48.698;9.116;2022-09-29T09:47:47;12.10;99.90
770;DHT22;368;48.698;9.116;2022-09-29T09:50:17;12.50;99.90
770;DHT22;368;48.698;9.116;2022-09-29T09:52:47;12.60;99.90
770;DHT22;368;48.698;9.116;2022-09-29T09:55:21;13.10;99.90
770;DHT22;368;48.698;9.116;2022-09-29T09:57:56;13.60;99.90
770;DHT22;368;48.698;9.116;2022-09-29T10:00:27;13.30;99.90
770;DHT22;368;48.698;9.116;2022-09-29T10:02:58;14.20;99.90
770;DHT22;368;48.698;9.116;2022-09-29T10:05:31;14.30;99.90
770;DHT22;368;48.698;9.116;2022-09-29T10:08:03;13.70;99.90
770;DHT22;368;48.698;9.116;2022-09-29T10:10:31;13.70;99.90
770;DHT22;368;48.698;9.116;2022-09-29T10:13:02;13.40;99.90
770;DHT22;368;48.698;9.116;2022-09-29T10:15:34;13.40;99.90
770;DHT22;368;48.698;9.116;2022-09-29T10:18:05;13.30;99.90
770;DHT22;368;48.698;9.116;2022-09-29T10:20:35;14.00;99.90
770;DHT22;368;48.698;9.116;2022-09-29T10:23:23;14.50;99.90
770;DHT22;368;48.698;9.116;2022-09-29T10:25:53;15.20;99.90
770;DHT22;368;48.698;9.116;2022-09-29T10:28:21;16.10;97.90
770;DHT22;368;48.698;9.116;2022-09-29T10:30:49;15.80;97.20
770;DHT22;368;48.698;9.116;2022-09-29T10:33:17;15.30;98.20
770;DHT22;368;48.698;9.116;2022-09-29T10:35:46;14.50;98.30
770;DHT22;368;48.698;9.116;2022-09-29T10:38:24;14.50;99.50
770;DHT22;368;48.698;9.116;2022-09-29T10:40:56;14.10;99.90
770;DHT22;368;48.698;9.116;2022-09-29T10:43:25;14.30;99.90
770;DHT22;368;48.698;9.116;2022-09-29T10:45:52;14.30;99.80
770;DHT22;368;48.698;9.116;2022-09-29T10:48:23;14.10;99.90
770;DHT22;368;48.698;9.116;2022-09-29T10:50:53;14.40;99.80
770;DHT22;368;48.698;9.116;2022-09-29T10:53:31;14.60;99.00
770;DHT22;368;48.698;9.116;2022-09-29T10:55:59;15.30;98.10
770;DHT22;368;48.698;9.116;2022-09-29T10:58:30;15.50;97.30
770;DHT22;368;48.698;9.116;2022-09-29T11:01:06;15.50;96.50
770;DHT22;368;48.698;9.116;2022-09-29T11:03:36;15.70;95.90
770;DHT22;368;48.698;9.116;2022-09-29T11:06:07;15.20;97.10
770;DHT22;368;48.698;9.116;2022-09-29T11:08:56;14.70;97.80
770;DHT22;368;48.698;9.116;2022-09-29T11:11:28;14.70;97.20
770;DHT22;368;48.698;9.116;2022-09-29T11:13:56;14.60;96.10
770;DHT22;368;48.698;9.116;2022-09-29T11:16:30;14.60;96.20
770;DHT22;368;48.698;9.116;2022-09-29T11:19:01;15.20;95.70
770;DHT22;368;48.698;9.116;2022-09-29T11:22:03;15.70;96.20
770;DHT22;368;48.698;9.116;2022-09-29T11:27:40;16.70;93.00
770;DHT22;368;48.698;9.116;2022-09-29T11:30:15;16.50;92.50
770;DHT22;368;48.698;9.116;2022-09-29T11:33:01;16.70;92.50
770;DHT22;368;48.698;9.116;2022-09-29T11:35:37;17.20;93.40
770;DHT22;368;48.698;9.116;2022-09-29T11:38:29;17.80;92.30
770;DHT22;368;48.698;9.116;2022-09-29T11:41:07;19.10;90.60
770;DHT22;368;48.698;9.116;2022-09-29T11:43:43;18.70;90.00
770;DHT22;368;48.698;9.116;2022-09-29T11:46:34;18.00;91.30
770;DHT22;368;48.698;9.116;2022-09-29T11:49:21;17.10;92.40
770;DHT22;368;48.698;9.116;2022-09-29T11:52:01;17.40;91.20
770;DHT22;368;48.698;9.116;2022-09-29T11:54:57;16.60;93.00
770;DHT22;368;48.698;9.116;2022-09-29T11:57:41;17.20;92.00
770;DHT22;368;48.698;9.116;2022-09-29T12:00:12;16.70;91.30
770;DHT22;368;48.698;9.116;2022-09-29T12:03:06;16.20;92.50
770;DHT22;368;48.698;9.116;2022-09-29T12:05:46;15.70;93.40
770;DHT22;368;48.698;9.116;2022-09-29T12:08:25;15.60;93.30
770;DHT22;368;48.698;9.116;2022-09-29T12:10:58;16.50;93.20
770;DHT22;368;48.698;9.116;2022-09-29T12:13:37;16.80;91.00
770;DHT22;368;48.698;9.116;2022-09-29T12:16:09;17.60;89.50
770;DHT22;368;48.698;9.116;2022-09-29T12:18:39;17.00;90.60
770;DHT22;368;48.698;9.116;2022-09-29T12:21:10;16.90;90.50
770;DHT22;368;48.698;9.116;2022-09-29T12:23:39;17.00;91.50
770;DHT22;368;48.698;9.116;2022-09-29T12:26:08;16.90;92.80
770;DHT22;368;48.698;9.116;2022-09-29T12:28:43;17.10;91.10
770;DHT22;368;48.698;9.116;2022-09-29T12:31:15;16.20;91.20
770;DHT22;368;48.698;9.116;2022-09-29T12:33:44;16.20;91.80
770;DHT22;368;48.698;9.116;2022-09-29T12:39:28;17.60;88.10
770;DHT22;368;48.698;9.116;2022-09-29T12:42:06;17.90;90.30
770;DHT22;368;48.698;9.116;2022-09-29T12:44:41;18.40;86.50
770;DHT22;368;48.698;9.116;2022-09-29T12:47:15;17.70;84.80
770;DHT22;368;48.698;9.116;2022-09-29T12:49:54;17.30;85.90
770;DHT22;368;48.698;9.116;2022-09-29T12:52:26;16.80;89.60
770;DHT22;368;48.698;9.116;2022-09-29T12:54:58;17.00;90.60
770;DHT22;368;48.698;9.116;2022-09-29T12:57:30;17.30;88.00
770;DHT22;368;48.698;9.116;2022-09-29T13:00:03;16.90;89.70
770;DHT22;368;48.698;9.116;2022-09-29T13:02:47;16.00;91.40
770;DHT22;368;48.698;9.116;2022-09-29T13:05:49;14.80;91.70
770;DHT22;368;48.698;9.116;2022-09-29T13:08:36;15.00;92.60
770;DHT22;368;48.698;9.116;2022-09-29T13:11:18;15.60;93.10
770;DHT22;368;48.698;9.116;2022-09-29T13:14:13;16.20;90.60
770;DHT22;368;48.698;9.116;2022-09-29T13:16:54;15.90;90.80
770;DHT22;368;48.698;9.116;2022-09-29T13:19:49;15.70;91.00
770;DHT22;368;48.698;9.116;2022-09-29T13:22:48;15.30;91.80
770;DHT22;368;48.698;9.116;2022-09-29T13:25:22;15.30;92.30
770;DHT22;368;48.698;9.116;2022-09-29T13:27:53;15.30;91.50
770;DHT22;368;48.698;9.116;2022-09-29T13:30:25;15.10;91.80
770;DHT22;368;48.698;9.116;2022-09-29T13:32:59;15.20;91.90
770;DHT22;368;48.698;9.116;2022-09-29T13:35:27;14.90;92.80
770;DHT22;368;48.698;9.116;2022-09-29T13:38:00;15.20;92.40
770;DHT22;368;48.698;9.116;2022-09-29T13:40:29;14.90;93.50
770;DHT22;368;48.698;9.116;2022-09-29T13:42:59;15.10;93.60
770;DHT22;368;48.698;9.116;2022-09-29T13:45:42;15.50;93.60
770;DHT22;368;48.698;9.116;2022-09-29T13:54:38;16.60;90.30
770;DHT22;368;48.698;9.116;2022-09-29T13:57:26;16.70;90.20
770;DHT22;368;48.698;9.116;2022-09-29T14:00:23;16.20;90.60
770;DHT22;368;48.698;9.116;2022-09-29T14:03:22;16.00;88.40
770;DHT22;368;48.698;9.116;2022-09-29T14:06:11;15.30;91.40
770;DHT22;368;48.698;9.116;2022-09-29T14:08:43;15.80;91.90
770;DHT22;368;48.698;9.116;2022-09-29T14:11:19;15.30;90.60
770;DHT22;368;48.698;9.116;2022-09-29T14:13:54;15.50;90.50
770;DHT22;368;48.698;9.116;2022-09-29T14:16:43;15.90;90.10
770;DHT22;368;48.698;9.116;2022-09-29T14:19:30;15.30;90.80
770;DHT22;368;48.698;9.116;2022-09-29T14:22:00;14.70;92.80
770;DHT22;368;48.698;9.116;2022-09-29T14:24:44;14.70;92.90
770;DHT22;368;48.698;9.116;2022-09-29T14:27:28;14.80;93.30
770;DHT22;368;48.698;9.116;2022-09-29T14:30:11;14.50;93.50
770;DHT22;368;48.698;9.116;2022-09-29T14:32:44;14.50;93.70
770;DHT22;368;48.698;9.116;2022-09-29T14:35:16;14.70;93.00
770;DHT22;368;48.698;9.116;2022-09-29T14:37:45;14.70;92.90
770;DHT22;368;48.698;9.116;2022-09-29T14:40:16;14.40;93.50
770;DHT22;368;48.698;9.116;2022-09-29T14:43:04;14.50;94.20
770;DHT22;368;48.698;9.116;2022-09-29T14:45:37;14.40;94.50
770;DHT22;368;48.698;9.116;2022-09-29T14:48:30;14.10;94.90
770;DHT22;368;48.698;9.116;2022-09-29T14:51:21;14.30;94.70
770;DHT22;368;48.698;9.116;2022-09-29T14:54:15;14.30;94.60
770;DHT22;368;48.698;9.116;2022-09-29T14:56:52;14.20;94.90
770;DHT22;368;48.698;9.116;2022-09-29T14:59:32;14.40;95.20
770;DHT22;368;48.698;9.116;2022-09-29T15:02:19;14.10;94.20
770;DHT22;368;48.698;9.116;2022-09-29T15:04:47;14.00;94.90
770;DHT22;368;48.698;9.116;2022-09-29T15:07:16;13.80;94.90
770;DHT22;368;48.698;9.116;2022-09-29T15:09:46;13.90;95.50
770;DHT22;368;48.698;9.116;2022-09-29T15:12:14;13.40;96.10
770;DHT22;368;48.698;9.116;2022-09-29T15:14:43;14.00;96.70
770;DHT22;368;48.698;9.116;2022-09-29T15:17:16;14.00;96.50
770;DHT22;368;48.698;9.116;2022-09-29T15:19:51;13.50;96.20
770;DHT22;368;48.698;9.116;2022-09-29T15:22:52;13.50;96.70
770;DHT22;368;48.698;9.116;2022-09-29T15:25:24;13.90;96.20
770;DHT22;368;48.698;9.116;2022-09-29T15:27:57;13.80;96.00
770;DHT22;368;48.698;9.116;2022-09-29T15:30:27;13.70;96.20
770;DHT22;368;48.698;9.116;2022-09-29T15:33:06;13.80;96.60
770;DHT22;368;48.698;9.116;2022-09-29T15:35:39;13.90;96.30
770;DHT22;368;48.698;9.116;2022-09-29T15:38:16;13.60;96.60
770;DHT22;368;48.698;9.116;2022-09-29T15:40:51;13.50;96.60
770;DHT22;368;48.698;9.116;2022-09-29T15:43:20;13.20;96.40
770;DHT22;368;48.698;9.116;2022-09-29T15:45:54;13.20;97.80
770;DHT22;368;48.698;9.116;2022-09-29T15:48:23;13.40;97.70
770;DHT22;368;48.698;9.116;2022-09-29T15:50:51;13.20;97.10
770;DHT22;368;48.698;9.116;2022-09-29T15:53:20;12.80;97.50
770;DHT22;368;48.698;9.116;2022-09-29T15:55:48;12.50;98.00
770;DHT22;368;48.698;9.116;2022-09-29T15:58:41;12.90;98.20
770;DHT22;368;48.698;9.116;2022-09-29T16:01:11;13.00;98.10
770;DHT22;368;48.698;9.116;2022-09-29T16:03:42;12.60;98.00
770;DHT22;368;48.698;9.116;2022-09-29T16:06:18;12.60;98.70
770;DHT22;368;48.698;9.116;2022-09-29T16:08:48;12.70;99.00
770;DHT22;368;48.698;9.116;2022-09-29T16:11:20;12.40;98.90
770;DHT22;368;48.698;9.116;2022-09-29T16:13:50;12.40;98.90
770;DHT22;368;48.698;9.116;2022-09-29T16:16:31;12.40;99.30
770;DHT22;368;48.698;9.116;2022-09-29T16:19:06;12.20;99.80
770;DHT22;368;48.698;9.116;2022-09-29T16:21:36;12.40;99.90
770;DHT22;368;48.698;9.116;2022-09-29T16:24:09;12.20;99.90
770;DHT22;368;48.698;9.116;2022-09-29T16:26:38;12.60;99.90
770;DHT22;368;48.698;9.116;2022-09-29T16:29:27;12.40;99.90
770;DHT22;368;48.698;9.116;2022-09-29T16:31:57;12.40;99.90
770;DHT22;368;48.698;9.116;2022-09-29T16:34:30;12.00;99.90
770;DHT22;368;48.698;9.116;2022-09-29T16:37:00;12.00;99.90
770;DHT22;368;48.698;9.116;2022-09-29T16:39:30;11.90;99.90
770;DHT22;368;48.698;9.116;2022-09-29T16:42:00;12.00;99.90
770;DHT22;368;48.698;9.116;2022-09-29T16:44:32;12.30;99.90
770;DHT22;368;48.698;9.116;2022-09-29T16:47:12;12.20;99.90
770;DHT22;368;48.698;9.116;2022-09-29T16:49:45;11.90;99.90
770;DHT22;368;48.698;9.116;2022-09-29T16:52:16;11.90;99.90
770;DHT22;368;48.698;9.116;2022-09-29T16:54:46;11.90;99.90
770;DHT22;368;48.698;9.116;2022-09-29T16:57:23;11.60;99.90
770;DHT22;368;48.698;9.116;2022-09-29T16:59:55;11.50;99.90
770;DHT22;368;48.698;9.116;2022-09-29T17:02:24;11.50;99.90
770;DHT22;368;48.698;9.116;2022-09-29T17:04:52;11.40;99.90
770;DHT22;368;48.698;9.116;2022-09-29T17:07:22;11.30;99.90
770;DHT22;368;48.698;9.116;2022-09-29T17:09:51;11.20;99.90
770;DHT22;368;48.698;9.116;2022-09-29T17:12:21;11.10;99.90
770;DHT22;368;48.698;9.116;2022-09-29T17:14:48;10.80;99.90
770;DHT22;368;48.698;9.116;2022-09-29T17:17:19;10.60;99.90
770;DHT22;368;48.698;9.116;2022-09-29T17:19:48;10.60;99.90
770;DHT22;368;48.698;9.116;2022-09-29T17:22:29;10.50;99.90
770;DHT22;368;48.698;9.116;2022-09-29T17:24:57;10.20;99.90
770;DHT22;368;48.698;9.116;2022-09-29T17:27:24;10.10;99.90
770;DHT22;368;48.698;9.116;2022-09-29T17:30:11;10.10;99.90
770;DHT22;368;48.698;9.116;2022-09-29T17:32:39;10.20;99.90
770;DHT22;368;48.698;9.116;2022-09-29T17:35:08;10.20;99.90
770;DHT22;368;48.698;9.116;2022-09-29T17:37:37;9.80;99.90